Time;durP1;ratioP1;P1;durP2;ratioP2;P2;SDS_P1;SDS_P2;PMS_P1;PMS_P2;Temp;Humidity;BMP_temperature;BMP_pressure;BME280_temperature;BME280_humidity;BME280_pressure;Samples;Min_cycle;Max_cycle;Signal;HPM_P1;HPM_P2
2022/12/26 00:01:40;;;;;;;16.90;12.17;;;;;;;2.48;100.00;98807.81;5060161;28;20071;-72
2022/12/26 00:04:06;;;;;;;18.50;12.00;;;;;;;2.59;100.00;98831.63;5070056;28;20036;-71
2022/12/26 00:06:32;;;;;;;22.93;13.60;;;;;;;2.58;100.00;98829.91;5063053;28;20028;-72
2022/12/26 00:09:00;;;;;;;22.63;15.73;;;;;;;2.46;100.00;98807.78;5064371;28;20094;-71
2022/12/26 00:11:26;;;;;;;25.03;17.17;;;;;;;2.59;100.00;98842.56;5061346;28;20080;-72
2022/12/26 00:13:57;;;;;;;21.20;14.60;;;;;;;2.51;100.00;98841.59;5061859;28;20062;-73
2022/12/26 00:16:24;;;;;;;20.50;13.40;;;;;;;2.59;100.00;98859.47;5065558;28;20799;-73
2022/12/26 00:18:49;;;;;;;17.73;11.43;;;;;;;2.48;100.00;98838.16;5066393;28;20533;-73
2022/12/26 00:21:16;;;;;;;16.03;12.13;;;;;;;2.64;100.00;98865.41;5061456;28;20045;-73
2022/12/26 00:23:43;;;;;;;17.07;11.73;;;;;;;2.69;100.00;98849.50;5062163;28;20044;-73
2022/12/26 00:26:22;;;;;;;17.43;12.43;;;;;;;2.67;100.00;98828.34;5064597;28;20357;-72
2022/12/26 00:28:48;;;;;;;20.00;12.77;;;;;;;2.74;100.00;98858.00;5069485;28;20508;-73
2022/12/26 00:31:17;;;;;;;17.97;11.97;;;;;;;2.74;100.00;98852.09;5044149;28;20029;-72
2022/12/26 00:33:44;;;;;;;18.50;11.53;;;;;;;2.67;100.00;98840.19;5060631;28;20036;-73
2022/12/26 00:36:18;;;;;;;17.90;12.10;;;;;;;2.71;100.00;98840.25;5064147;28;20045;-72
2022/12/26 00:38:44;;;;;;;15.90;11.80;;;;;;;2.80;100.00;98843.75;5065004;28;20064;-73
2022/12/26 00:41:11;;;;;;;13.87;11.27;;;;;;;2.77;100.00;98852.13;5063823;28;20051;-72
2022/12/26 00:43:37;;;;;;;16.10;11.20;;;;;;;2.89;100.00;98856.53;5066069;28;20134;-71
2022/12/26 00:46:04;;;;;;;15.90;10.73;;;;;;;2.92;100.00;98856.59;5062395;28;20033;-72
2022/12/26 00:48:29;;;;;;;15.83;10.77;;;;;;;3.00;100.00;98849.94;5062577;28;20061;-73
2022/12/26 00:50:55;;;;;;;14.30;9.90;;;;;;;3.06;100.00;98861.00;5060644;28;20134;-72
2022/12/26 00:53:23;;;;;;;18.13;11.47;;;;;;;3.09;100.00;98852.63;5062474;28;20226;-72
2022/12/26 00:55:48;;;;;;;16.43;11.07;;;;;;;3.12;100.00;98862.78;5062870;28;20581;-72
2022/12/26 00:58:14;;;;;;;17.93;11.93;;;;;;;3.13;100.00;98856.91;5064723;28;20126;-72
2022/12/26 01:00:40;;;;;;;14.27;10.60;;;;;;;3.12;100.00;98842.53;5066667;28;20048;-72
2022/12/26 01:03:07;;;;;;;17.17;11.83;;;;;;;3.16;100.00;98854.41;5066276;28;20455;-73
2022/12/26 01:05:33;;;;;;;16.23;11.93;;;;;;;3.17;100.00;98848.50;5065199;28;20078;-71
2022/12/26 01:07:59;;;;;;;17.30;10.90;;;;;;;3.09;100.00;98832.34;5066026;28;20033;-72
2022/12/26 01:10:25;;;;;;;15.73;10.77;;;;;;;3.22;100.00;98851.97;5066423;28;20412;-72
2022/12/26 01:12:51;;;;;;;15.70;10.80;;;;;;;3.22;100.00;98851.97;5071811;28;20247;-72
2022/12/26 01:15:17;;;;;;;16.77;10.70;;;;;;;3.25;100.00;98854.53;5083400;28;20040;-73
2022/12/26 01:17:42;;;;;;;16.03;10.80;;;;;;;3.25;100.00;98858.75;5068189;28;20037;-72
2022/12/26 01:20:09;;;;;;;16.20;11.80;;;;;;;3.27;100.00;98860.44;5064044;28;20044;-71
2022/12/26 01:22:36;;;;;;;15.60;10.23;;;;;;;3.27;100.00;98847.78;5067571;28;20134;-71
2022/12/26 01:25:02;;;;;;;16.03;11.40;;;;;;;3.36;100.00;98845.38;5065902;28;20589;-72
2022/12/26 01:27:30;;;;;;;15.77;10.30;;;;;;;3.38;100.00;98853.00;5067248;28;20040;-72
2022/12/26 01:29:55;;;;;;;17.43;10.27;;;;;;;3.49;100.00;98856.50;5066000;28;20916;-73
2022/12/26 01:32:21;;;;;;;14.77;9.53;;;;;;;3.47;100.00;98848.06;5063413;28;20048;-72
2022/12/26 01:34:47;;;;;;;13.73;10.30;;;;;;;3.49;100.00;98844.69;5063156;28;20049;-72
2022/12/26 01:37:15;;;;;;;11.93;7.90;;;;;;;3.57;100.00;98832.97;5065320;28;20060;-72
2022/12/26 01:39:42;;;;;;;13.70;9.20;;;;;;;3.58;100.00;98847.34;5065247;28;20068;-75
2022/12/26 01:42:12;;;;;;;11.73;8.43;;;;;;;3.63;100.00;98849.94;5063891;28;20083;-72
2022/12/26 01:44:57;;;;;;;13.00;8.93;;;;;;;3.64;100.00;98844.91;5063860;28;20045;-73
2022/12/26 01:47:28;;;;;;;11.83;8.33;;;;;;;3.53;100.00;98826.16;5064928;28;20558;-72
2022/12/26 01:49:54;;;;;;;12.47;8.60;;;;;;;3.63;100.00;98855.00;5063730;28;20483;-75
2022/12/26 01:52:35;;;;;;;12.03;8.47;;;;;;;3.64;100.00;98849.97;5064058;28;20040;-73
2022/12/26 01:55:04;;;;;;;12.33;9.07;;;;;;;3.65;100.00;98849.13;5063894;28;20032;-72
2022/12/26 01:57:35;;;;;;;13.30;8.90;;;;;;;3.77;100.00;98850.09;5065992;28;20038;-73
2022/12/26 02:00:03;;;;;;;13.50;8.63;;;;;;;3.67;100.00;98847.47;5069488;28;20119;-73
2022/12/26 02:05:34;;;;;;;12.50;8.55;;;;;;;3.58;100.00;98832.13;5071990;28;20041;-72
2022/12/26 02:08:12;;;;;;;11.67;8.43;;;;;;;3.74;100.00;98847.50;5065220;28;20039;-73
2022/12/26 02:10:47;;;;;;;13.20;8.37;;;;;;;3.77;100.00;98845.91;5060012;28;20041;-72
2022/12/26 02:13:16;;;;;;;13.67;9.37;;;;;;;3.63;100.00;98835.59;5065089;28;20190;-72
2022/12/26 02:15:41;;;;;;;16.13;9.77;;;;;;;3.65;100.00;98835.59;5065202;28;20040;-72
2022/12/26 02:18:07;;;;;;;19.00;11.90;;;;;;;3.64;100.00;98824.63;5063564;28;20059;-72
2022/12/26 02:20:43;;;;;;;22.20;12.13;;;;;;;3.80;100.00;98850.13;5066364;28;20037;-73
2022/12/26 02:23:15;;;;;;;16.43;9.80;;;;;;;3.78;100.00;98854.34;5065506;28;20116;-73
2022/12/26 02:26:21;;;;;;;15.20;10.30;;;;;;;3.83;100.00;98852.69;5061748;28;20076;-73
2022/12/26 02:29:05;;;;;;;10.85;8.63;;;;;;;3.78;100.00;98856.88;5059921;28;20526;-72
2022/12/26 02:31:38;;;;;;;13.03;8.20;;;;;;;3.77;100.00;98862.78;5066851;28;20036;-72
2022/12/26 02:34:22;;;;;;;10.77;8.53;;;;;;;3.75;100.00;98864.44;5063868;28;20047;-72
2022/12/26 02:37:00;;;;;;;9.33;8.10;;;;;;;3.77;100.00;98875.47;5064553;28;20044;-72
2022/12/26 02:39:55;;;;;;;10.33;8.07;;;;;;;3.77;100.00;98873.78;5064124;28;20392;-73
2022/12/26 02:42:32;;;;;;;11.07;8.77;;;;;;;3.80;100.00;98875.50;5066362;28;20123;-73
2022/12/26 02:48:19;;;;;;;15.37;10.17;;;;;;;3.78;100.00;98874.63;5069923;28;20043;-72
2022/12/26 03:14:13;;;;;;;10.97;7.30;;;;;;;3.52;100.00;98832.06;5059721;28;20052;-72
2022/12/26 03:19:28;;;;;;;11.53;7.87;;;;;;;3.64;100.00;98852.50;5060633;28;20687;-72
2022/12/26 03:21:56;;;;;;;9.87;7.33;;;;;;;3.64;100.00;98855.03;5061782;28;20044;-72
2022/12/26 03:24:22;;;;;;;12.17;7.23;;;;;;;3.60;100.00;98855.84;5064561;28;20681;-72
2022/12/26 03:26:52;;;;;;;11.07;7.20;;;;;;;3.47;100.00;98835.38;5062324;28;20631;-72
2022/12/26 03:32:09;;;;;;;12.00;7.30;;;;;;;3.52;100.00;98851.50;5062568;28;20043;-73
2022/12/26 03:34:43;;;;;;;11.87;7.27;;;;;;;3.45;100.00;98848.03;5063060;28;20036;-72
2022/12/26 03:37:43;;;;;;;10.17;8.17;;;;;;;3.32;100.00;98841.09;5057778;28;20037;-73
2022/12/26 04:19:27;;;;;;;10.83;7.63;;;;;;;3.44;100.00;98891.94;4959586;28;20051;-74
2022/12/26 04:44:49;;;;;;;12.02;6.63;;;;;;;3.44;100.00;98899.53;5063865;28;20064;-72
2022/12/26 04:47:15;;;;;;;11.00;8.80;;;;;;;3.45;100.00;98875.91;5065492;28;20060;-73
2022/12/26 04:52:53;;;;;;;13.82;9.68;;;;;;;3.52;100.00;98887.00;5065877;28;20125;-72
2022/12/26 04:55:16;;;;;;;12.57;9.63;;;;;;;3.54;100.00;98890.38;5066659;28;20055;-73
2022/12/26 04:57:41;;;;;;;17.10;10.63;;;;;;;3.43;100.00;98895.31;5068111;28;20068;-71
2022/12/26 05:00:08;;;;;;;18.03;11.60;;;;;;;3.37;100.00;98917.19;5064204;28;20469;-73
2022/12/26 05:10:46;;;;;;;14.93;10.73;;;;;;;3.02;100.00;98911.59;5067134;28;20052;-72
2022/12/26 05:13:11;;;;;;;16.20;11.73;;;;;;;2.93;100.00;98894.56;5062927;28;20044;-73
2022/12/26 05:29:25;;;;;;;131.17;19.70;;;;;;;3.00;100.00;98900.59;5063805;28;20068;-71
2022/12/26 05:31:51;;;;;;;105.27;20.43;;;;;;;2.95;100.00;98902.19;5067725;28;20044;-72
2022/12/26 05:34:19;;;;;;;144.13;23.03;;;;;;;2.89;100.00;98907.16;5062901;28;20234;-72
2022/12/26 05:36:52;;;;;;;56.43;18.27;;;;;;;2.74;100.00;98888.38;5065200;28;20571;-72
2022/12/26 05:39:18;;;;;;;30.00;17.00;;;;;;;2.88;100.00;98919.00;5064093;28;20775;-72
2022/12/26 05:41:44;;;;;;;61.27;18.17;;;;;;;2.95;100.00;98917.41;5066346;28;20042;-71
2022/12/26 05:44:10;;;;;;;62.60;18.57;;;;;;;2.89;100.00;98917.28;5065479;28;20048;-72
2022/12/26 05:46:37;;;;;;;32.93;17.17;;;;;;;2.85;100.00;98916.38;5065589;28;20840;-73
2022/12/26 05:49:03;;;;;;;111.13;21.23;;;;;;;2.83;100.00;98919.72;5061782;28;20040;-72
2022/12/26 05:51:29;;;;;;;53.73;18.10;;;;;;;2.81;100.00;98911.25;5060358;28;20031;-73
2022/12/26 05:53:55;;;;;;;77.40;21.13;;;;;;;2.71;100.00;98906.06;5061746;28;20043;-72
2022/12/26 05:56:21;;;;;;;93.20;20.03;;;;;;;2.69;100.00;98917.81;5068242;28;20062;-72
2022/12/26 05:58:52;;;;;;;91.03;21.10;;;;;;;2.66;100.00;98912.72;5063884;28;20042;-73
2022/12/26 06:01:19;;;;;;;162.07;24.17;;;;;;;2.49;100.00;98886.28;5061171;28;20858;-72
2022/12/26 06:03:47;;;;;;;123.67;22.23;;;;;;;2.50;100.00;98897.25;5060643;28;20097;-72
2022/12/26 06:06:14;;;;;;;110.77;22.30;;;;;;;2.49;100.00;98893.00;5064826;28;20041;-72
2022/12/26 06:08:39;;;;;;;169.97;28.10;;;;;;;2.64;100.00;98927.00;5063503;28;20524;-71
2022/12/26 06:11:10;;;;;;;221.93;26.73;;;;;;;2.61;100.00;98926.97;5063237;28;20051;-72
2022/12/26 06:13:38;;;;;;;58.17;18.77;;;;;;;2.54;100.00;98920.13;5062381;28;20138;-73
2022/12/26 06:16:07;;;;;;;38.97;19.53;;;;;;;2.51;100.00;98914.13;5065699;28;20039;-73
2022/12/26 06:18:33;;;;;;;160.47;29.30;;;;;;;2.47;100.00;98909.84;5064558;28;20059;-73
2022/12/26 06:21:04;;;;;;;99.33;25.23;;;;;;;2.45;100.00;98917.41;5061543;28;20465;-73
2022/12/26 06:23:30;;;;;;;145.80;27.37;;;;;;;2.45;100.00;98921.63;5059074;28;20040;-72
2022/12/26 06:25:56;;;;;;;110.70;25.40;;;;;;;2.45;100.00;98924.16;5063502;28;20051;-72
2022/12/26 06:28:23;;;;;;;38.90;19.97;;;;;;;2.39;100.00;98907.19;5063294;28;20051;-71
2022/12/26 06:30:50;;;;;;;45.50;20.83;;;;;;;2.41;100.00;98910.59;5065172;28;20024;-72
2022/12/26 06:33:16;;;;;;;30.87;20.40;;;;;;;2.47;100.00;98915.75;5058793;28;20088;-72
2022/12/26 06:35:42;;;;;;;32.33;19.40;;;;;;;2.35;100.00;98894.44;5063192;28;20065;-73
2022/12/26 06:38:09;;;;;;;30.70;18.20;;;;;;;2.42;100.00;98914.81;5061071;28;20049;-72
2022/12/26 06:40:39;;;;;;;24.33;17.17;;;;;;;2.44;100.00;98919.91;5063933;28;20044;-74
2022/12/26 06:43:05;;;;;;;28.70;19.73;;;;;;;2.42;100.00;98919.03;5058654;28;20048;-73
2022/12/26 06:45:31;;;;;;;31.83;19.67;;;;;;;2.44;100.00;98924.97;5062913;28;20101;-73
2022/12/26 06:47:58;;;;;;;34.20;21.53;;;;;;;2.41;100.00;98932.50;5061406;28;20040;-72
2022/12/26 06:50:23;;;;;;;32.10;21.50;;;;;;;2.36;100.00;98947.59;5062887;28;20056;-72
2022/12/26 06:52:49;;;;;;;32.67;20.47;;;;;;;2.42;100.00;98940.13;5063136;28;20521;-72
2022/12/26 06:55:15;;;;;;;30.77;19.90;;;;;;;2.44;100.00;98940.16;5061222;28;20067;-72
2022/12/26 06:57:40;;;;;;;30.23;18.87;;;;;;;2.42;100.00;98947.69;5050268;28;20028;-72
2022/12/26 07:00:09;;;;;;;23.67;16.70;;;;;;;2.48;100.00;98955.41;5063000;28;20048;-72
2022/12/26 07:02:35;;;;;;;27.10;19.00;;;;;;;2.51;100.00;98957.13;5062985;28;20089;-71
2022/12/26 07:05:01;;;;;;;32.17;21.90;;;;;;;2.58;100.00;98972.47;5056207;28;20312;-72
2022/12/26 07:07:26;;;;;;;30.40;20.50;;;;;;;2.61;100.00;98964.94;5057757;28;21230;-72
2022/12/26 07:09:52;;;;;;;33.17;22.10;;;;;;;2.61;100.00;98966.59;5061001;28;20626;-71
2022/12/26 07:12:20;;;;;;;35.50;21.90;;;;;;;2.66;100.00;98970.94;5061849;28;20074;-71
2022/12/26 07:14:47;;;;;;;34.77;22.90;;;;;;;3.04;100.00;98958.06;5060258;28;20127;-71
2022/12/26 07:17:13;;;;;;;33.40;20.57;;;;;;;3.08;100.00;98988.53;5062157;28;20047;-72
2022/12/26 07:19:39;;;;;;;34.17;21.87;;;;;;;3.03;100.00;98976.59;5061077;28;20147;-74
2022/12/26 07:22:05;;;;;;;31.77;21.13;;;;;;;2.88;100.00;98962.03;5062419;28;20059;-72
2022/12/26 07:24:30;;;;;;;33.43;20.60;;;;;;;3.04;100.00;98955.53;5062140;28;20072;-72
2022/12/26 07:26:56;;;;;;;30.83;19.23;;;;;;;3.31;100.00;98986.34;5062185;28;20047;-72
2022/12/26 07:29:22;;;;;;;30.57;18.97;;;;;;;3.14;100.00;98973.41;5061743;28;20567;-71
2022/12/26 07:31:48;;;;;;;31.07;19.47;;;;;;;3.16;100.00;98997.09;5058300;28;20533;-73
2022/12/26 07:34:13;;;;;;;28.33;17.53;;;;;;;3.32;100.00;98994.78;5063337;28;20045;-73
2022/12/26 07:36:39;;;;;;;24.63;17.27;;;;;;;3.38;100.00;98997.44;5061336;28;20381;-73
2022/12/26 07:39:06;;;;;;;24.93;16.07;;;;;;;3.81;100.00;98997.22;5063493;28;20510;-72
2022/12/26 07:42:15;;;;;;;22.67;16.83;;;;;;;3.79;100.00;98982.81;5063099;28;20127;-72
2022/12/26 07:44:23;;;;;;;23.33;15.97;;;;;;;3.88;100.00;98978.72;5054248;28;20667;-73
2022/12/26 07:46:49;;;;;;;24.87;16.20;;;;;;;3.84;100.00;98997.28;5065584;28;20525;-73
2022/12/26 07:49:14;;;;;;;34.13;22.03;;;;;;;3.78;100.00;99003.94;5051258;28;20309;-73
2022/12/26 07:51:41;;;;;;;29.73;18.37;;;;;;;3.59;100.00;98980.00;5060775;28;20367;-70
2022/12/26 07:54:08;;;;;;;28.77;18.67;;;;;;;3.64;100.00;98988.53;5047340;28;20055;-69
2022/12/26 07:56:35;;;;;;;23.03;16.43;;;;;;;3.97;100.00;98995.75;5057054;28;20396;-70
2022/12/26 07:59:01;;;;;;;20.83;15.47;;;;;;;4.11;100.00;98990.03;5057720;28;20044;-71
2022/12/26 08:01:27;;;;;;;22.70;14.63;;;;;;;4.17;100.00;99003.59;5061508;28;20071;-70
2022/12/26 08:03:52;;;;;;;21.13;15.97;;;;;;;4.04;100.00;99005.13;5060767;28;20610;-70
2022/12/26 08:06:21;;;;;;;22.70;16.87;;;;;;;3.81;100.00;98998.91;5058146;28;20053;-69
2022/12/26 08:08:47;;;;;;;32.37;21.70;;;;;;;3.80;100.00;99004.81;5058771;28;20037;-69
2022/12/26 08:11:15;;;;;;;35.37;25.33;;;;;;;3.67;100.00;99011.41;5063343;28;20519;-70
2022/12/26 08:13:41;;;;;;;38.63;25.87;;;;;;;3.78;100.00;99020.00;5059025;28;20167;-69
2022/12/26 08:16:14;;;;;;;99.83;47.97;;;;;;;3.56;100.00;99003.66;5063951;28;20099;-69
2022/12/26 08:18:39;;;;;;;124.17;57.70;;;;;;;3.76;100.00;99020.81;5062301;28;20475;-70
2022/12/26 08:21:05;;;;;;;118.10;57.50;;;;;;;3.86;100.00;99030.25;5060691;28;20117;-71
2022/12/26 08:23:34;;;;;;;92.30;47.07;;;;;;;3.87;100.00;99031.94;5060454;28;20048;-70
2022/12/26 08:26:04;;;;;;;81.50;41.07;;;;;;;3.96;100.00;99016.84;5061427;28;20054;-69
2022/12/26 08:28:30;;;;;;;57.03;32.00;;;;;;;4.15;100.00;99008.66;5057912;28;20049;-71
2022/12/26 08:30:55;;;;;;;58.10;31.83;;;;;;;4.29;100.00;99013.88;5061851;28;20033;-71
2022/12/26 08:33:21;;;;;;;60.63;32.93;;;;;;;4.52;100.00;99020.94;5043745;28;20514;-70
2022/12/26 08:35:46;;;;;;;47.17;29.37;;;;;;;4.65;100.00;99026.16;5056140;28;20052;-70
2022/12/26 08:38:15;;;;;;;43.37;26.53;;;;;;;4.77;100.00;99009.38;5060297;28;20049;-69
2022/12/26 08:40:54;;;;;;;36.27;22.97;;;;;;;4.94;100.00;99012.91;5056975;28;20101;-70
2022/12/26 08:43:22;;;;;;;27.77;20.73;;;;;;;5.11;100.00;99010.53;5059454;28;20044;-69
2022/12/26 08:45:56;;;;;;;27.63;19.87;;;;;;;5.31;100.00;99014.09;5050524;28;20103;-71
2022/12/26 08:48:21;;;;;;;30.47;20.07;;;;;;;5.28;100.00;98996.28;5063879;28;20037;-70
2022/12/26 08:50:47;;;;;;;25.17;17.00;;;;;;;5.38;100.00;98990.44;5058803;28;20048;-73
2022/12/26 08:53:12;;;;;;;24.53;18.07;;;;;;;5.75;100.00;99001.69;5060084;28;20046;-71
2022/12/26 08:55:41;;;;;;;27.10;18.27;;;;;;;5.87;100.00;99011.13;5059965;28;20192;-72
2022/12/26 08:58:07;;;;;;;28.43;20.20;;;;;;;6.00;100.00;98979.81;5042373;28;20578;-69
2022/12/26 09:00:32;;;;;;;26.37;19.70;;;;;;;6.41;100.00;99005.41;5055264;28;20040;-70
2022/12/26 09:03:01;;;;;;;28.97;21.10;;;;;;;6.45;100.00;99004.59;5060572;28;20040;-70
2022/12/26 09:05:26;;;;;;;30.73;21.90;;;;;;;6.72;100.00;98993.63;5061607;28;20041;-68
2022/12/26 09:07:52;;;;;;;28.83;21.53;;;;;;;6.93;100.00;99003.84;5058542;28;20037;-71
2022/12/26 09:10:17;;;;;;;30.80;21.57;;;;;;;7.04;100.00;99014.94;5057361;28;20052;-69
2022/12/26 09:12:43;;;;;;;28.87;20.90;;;;;;;7.38;100.00;99012.41;5056440;28;20116;-70
2022/12/26 09:15:09;;;;;;;32.30;21.93;;;;;;;7.38;100.00;99013.25;5053554;28;20037;-70
2022/12/26 09:17:34;;;;;;;30.73;21.43;;;;;;;7.55;100.00;98996.25;5058026;28;20036;-71
2022/12/26 09:20:00;;;;;;;27.97;22.13;;;;;;;7.75;100.00;99009.81;5056665;28;20048;-70
2022/12/26 09:25:11;;;;;;;29.17;21.87;;;;;;;7.95;100.00;98996.13;5064373;28;20078;-70
2022/12/26 09:27:36;;;;;;;35.60;22.17;;;;;;;7.96;100.00;98993.59;5062433;28;20040;-70
2022/12/26 09:30:02;;;;;;;29.88;20.35;;;;;;;8.06;100.00;98984.22;5064812;28;20597;-70
2022/12/26 09:32:37;;;;;;;23.88;17.67;;;;;;;8.17;100.00;98995.22;5060631;28;20044;-70
2022/12/26 09:35:03;;;;;;;22.70;17.75;;;;;;;8.00;100.00;98976.56;5063377;28;20098;-70
2022/12/26 09:37:29;;;;;;;21.20;15.65;;;;;;;8.32;100.00;98986.69;5062149;28;20111;-70
2022/12/26 09:39:54;;;;;;;22.13;16.00;;;;;;;8.51;100.00;98986.59;5062505;28;20407;-70
2022/12/26 09:42:50;;;;;;;20.92;16.63;;;;;;;8.74;100.00;98977.97;5060800;28;20102;-70
2022/12/26 09:45:24;;;;;;;19.85;16.05;;;;;;;8.79;100.00;98983.88;5058601;28;20340;-70
2022/12/26 09:48:08;;;;;;;21.55;16.92;;;;;;;8.74;100.00;98985.63;5061060;28;20067;-70
2022/12/26 09:50:37;;;;;;;19.08;16.08;;;;;;;8.68;100.00;98955.84;5063825;28;20597;-70
2022/12/26 09:53:35;;;;;;;21.15;16.88;;;;;;;9.05;100.00;98941.06;5059990;28;20045;-70
2022/12/26 09:56:07;;;;;;;22.02;17.20;;;;;;;9.28;100.00;98957.09;5061522;28;20040;-70
2022/12/26 09:59:01;;;;;;;25.42;18.73;;;;;;;9.55;100.00;98958.53;5060227;28;20056;-70
2022/12/26 10:01:31;;;;;;;22.35;17.80;;;;;;;9.56;100.00;98930.38;5003914;28;20052;-74
2022/12/26 10:03:59;;;;;;;24.45;18.55;;;;;;;9.28;100.00;98951.13;4989132;28;20057;-72
2022/12/26 10:06:48;;;;;;;24.40;18.02;;;;;;;9.13;100.00;98955.50;4980804;28;20611;-73
2022/12/26 10:09:47;;;;;;;19.73;17.38;;;;;;;9.07;100.00;98955.56;5005537;28;20132;-73
2022/12/26 10:12:27;;;;;;;20.67;17.15;;;;;;;9.15;100.00;98952.94;5006098;28;20064;-72
2022/12/26 10:15:28;;;;;;;22.98;17.02;;;;;;;8.89;100.00;98950.56;5006216;28;20132;-72
2022/12/26 10:17:59;;;;;;;22.17;17.10;;;;;;;8.95;100.00;98952.25;5005812;28;20046;-72
2022/12/26 10:20:38;;;;;;;24.85;19.25;;;;;;;8.70;100.00;98928.53;5008874;28;20042;-72
2022/12/26 10:23:38;;;;;;;26.08;19.00;;;;;;;8.90;100.00;98949.72;5009932;28;20073;-69
2022/12/26 10:26:21;;;;;;;23.27;18.40;;;;;;;8.89;100.00;98937.78;5007358;28;20058;-72
2022/12/26 10:28:58;;;;;;;25.23;19.63;;;;;;;8.94;100.00;98942.88;5008520;28;20100;-70
2022/12/26 10:31:45;;;;;;;22.50;16.85;;;;;;;9.00;100.00;98928.31;5007228;28;20057;-73
2022/12/26 10:34:41;;;;;;;22.02;16.63;;;;;;;9.12;100.00;98933.31;5004371;28;20172;-74
2022/12/26 10:37:10;;;;;;;21.70;16.15;;;;;;;9.14;100.00;98931.63;4994768;28;20574;-72
2022/12/26 10:39:54;;;;;;;21.65;16.40;;;;;;;9.28;100.00;98922.97;5061940;28;20103;-71
2022/12/26 10:42:36;;;;;;;20.55;16.08;;;;;;;9.29;100.00;98924.69;5063832;28;20036;-73
2022/12/26 10:45:22;;;;;;;20.67;15.48;;;;;;;9.43;100.00;98925.38;5061727;28;20384;-72
2022/12/26 10:47:51;;;;;;;;;;;;;;;9.57;100.00;98929.50;5026617;28;20509;-73
2022/12/26 10:50:22;;;;;;;18.40;15.35;;;;;;;9.72;100.00;98928.47;5058949;28;19927;-73
2022/12/26 10:52:50;;;;;;;18.90;15.43;;;;;;;9.50;100.00;98894.63;5061768;28;20060;-68
2022/12/26 10:55:18;;;;;;;20.08;15.93;;;;;;;9.62;100.00;98911.56;5061060;28;20052;-72
2022/12/26 10:57:50;;;;;;;19.02;15.43;;;;;;;9.65;100.00;98888.47;5060655;28;20044;-72
2022/12/26 11:00:22;;;;;;;15.93;14.23;;;;;;;9.85;100.00;98908.72;5063695;28;20040;-69
2022/12/26 11:03:09;;;;;;;17.42;13.85;;;;;;;9.88;100.00;98903.56;5059402;28;20045;-70
2022/12/26 11:05:50;;;;;;;17.92;15.10;;;;;;;9.93;100.00;98902.63;5061064;28;20086;-69
2022/12/26 11:08:24;;;;;;;19.67;15.57;;;;;;;10.01;100.00;98888.00;5059316;28;20051;-70
2022/12/26 11:11:13;;;;;;;16.85;14.90;;;;;;;10.21;100.00;98898.06;5061446;28;20119;-70
2022/12/26 11:13:45;;;;;;;17.20;14.45;;;;;;;10.35;100.00;98897.88;5059229;28;20094;-69
2022/12/26 11:16:27;;;;;;;17.52;14.35;;;;;;;10.40;100.00;98891.81;5056721;28;20045;-69
2022/12/26 11:18:54;;;;;;;15.23;13.48;;;;;;;10.48;100.00;98878.91;5058543;28;20140;-69
2022/12/26 11:21:22;;;;;;;17.63;14.75;;;;;;;10.64;100.00;98890.63;5061682;28;20463;-70
2022/12/26 11:23:54;;;;;;;18.00;13.98;;;;;;;10.68;100.00;98886.28;5062262;28;20906;-70
2022/12/26 11:26:26;;;;;;;15.90;13.35;;;;;;;10.75;100.00;98878.47;5062108;28;20093;-69
2022/12/26 11:29:16;;;;;;;16.75;12.70;;;;;;;10.79;100.00;98879.25;5061888;28;20048;-73
2022/12/26 11:32:02;;;;;;;14.60;12.70;;;;;;;10.92;100.00;98881.59;5062644;28;20070;-71
2022/12/26 11:34:36;;;;;;;17.30;12.40;;;;;;;11.01;100.00;98878.03;5072030;28;20044;-73
2022/12/26 11:37:06;;;;;;;16.23;12.10;;;;;;;11.01;100.00;98867.78;5065709;28;20096;-70
2022/12/26 11:39:36;;;;;;;13.52;11.85;;;;;;;10.98;100.00;98855.88;5069585;28;20044;-69
2022/12/26 11:42:16;;;;;;;15.45;12.38;;;;;;;11.05;100.00;98869.41;5062640;28;20036;-72
2022/12/26 11:44:44;;;;;;;14.50;11.98;;;;;;;11.03;100.00;98854.94;5048027;28;20040;-70
2022/12/26 11:47:13;;;;;;;15.38;12.80;;;;;;;11.04;100.00;98847.19;5063914;28;20125;-70
2022/12/26 11:49:52;;;;;;;16.65;14.45;;;;;;;11.19;100.00;98870.03;5060267;28;20047;-69
2022/12/26 11:52:45;;;;;;;16.05;14.10;;;;;;;11.15;100.00;98863.28;5061713;28;20044;-71
2022/12/26 11:55:29;;;;;;;16.83;15.02;;;;;;;11.05;100.00;98837.78;5059452;28;20040;-69
2022/12/26 11:58:05;;;;;;;17.25;14.68;;;;;;;10.98;100.00;98863.56;5057895;28;20135;-68
2022/12/26 12:00:34;;;;;;;21.10;15.38;;;;;;;10.88;100.00;98863.72;5060924;28;20454;-68
2022/12/26 12:03:01;;;;;;;16.42;14.57;;;;;;;10.88;100.00;98873.97;5059479;28;20383;-66
2022/12/26 12:05:42;;;;;;;16.77;14.20;;;;;;;10.85;100.00;98874.91;5055312;28;20040;-71
2022/12/26 12:08:16;;;;;;;16.17;13.70;;;;;;;10.87;100.00;98872.28;5059003;28;20544;-70
2022/12/26 12:11:05;;;;;;;14.88;13.30;;;;;;;10.84;100.00;98873.19;5062010;28;20044;-70
2022/12/26 12:13:36;;;;;;;15.80;13.02;;;;;;;10.88;100.00;98876.53;5059216;28;20106;-71
2022/12/26 12:16:19;;;;;;;15.18;12.57;;;;;;;10.86;100.00;98863.75;5062609;28;20048;-71
2022/12/26 12:18:54;;;;;;;15.13;12.82;;;;;;;10.86;100.00;98865.47;5059361;28;20050;-72
2022/12/26 12:21:43;;;;;;;15.85;14.20;;;;;;;10.84;100.00;98865.50;5061867;28;20044;-72
2022/12/26 12:24:25;;;;;;;17.60;14.63;;;;;;;10.86;100.00;98868.88;5057033;28;20299;-68
2022/12/26 12:26:53;;;;;;;18.38;14.38;;;;;;;10.80;100.00;98865.56;5049224;28;20492;-65
2022/12/26 12:29:47;;;;;;;14.77;13.00;;;;;;;10.84;100.00;98862.94;5053638;28;20060;-67
2022/12/26 12:32:33;;;;;;;18.05;13.80;;;;;;;10.79;100.00;98867.28;5049543;28;20666;-69
2022/12/26 12:35:38;;;;;;;14.70;13.15;;;;;;;10.64;100.00;98867.53;5054892;28;20036;-67
2022/12/26 12:38:36;;;;;;;16.40;14.20;;;;;;;10.68;100.00;98858.94;5055784;28;20584;-67
2022/12/26 12:41:24;;;;;;;16.00;14.05;;;;;;;10.66;100.00;98857.25;5059742;28;20113;-68
2022/12/26 12:44:04;;;;;;;18.52;14.32;;;;;;;10.64;100.00;98849.59;5060318;28;20438;-67
2022/12/26 12:46:38;;;;;;;14.98;12.88;;;;;;;10.64;100.00;98836.78;5057013;28;20450;-67
2022/12/26 12:49:10;;;;;;;15.55;12.73;;;;;;;10.76;100.00;98854.53;5063451;28;20036;-68
2022/12/26 12:51:47;;;;;;;15.80;13.00;;;;;;;10.70;100.00;98849.47;5059544;28;20044;-67
2022/12/26 12:54:34;;;;;;;13.27;11.75;;;;;;;10.82;100.00;98858.72;5060318;28;20097;-68
2022/12/26 12:57:40;;;;;;;15.43;12.10;;;;;;;10.82;100.00;98862.09;5063919;28;20044;-67
2022/12/26 13:00:15;;;;;;;16.65;13.15;;;;;;;10.75;100.00;98844.28;4973377;28;20047;-66
2022/12/26 13:03:01;;;;;;;17.13;13.80;;;;;;;10.82;100.00;98853.59;4985079;28;20053;-65
2022/12/26 13:05:54;;;;;;;14.65;12.57;;;;;;;10.82;100.00;98851.84;4982168;28;20574;-61
2022/12/26 13:08:29;;;;;;;18.33;15.52;;;;;;;10.55;100.00;98859.97;4986296;28;20054;-62
2022/12/26 13:11:03;;;;;;;17.77;15.80;;;;;;;10.54;100.00;98835.22;4969934;28;20482;-65
2022/12/26 13:13:33;;;;;;;17.25;14.50;;;;;;;10.66;100.00;98852.97;4981216;28;20569;-67
2022/12/26 13:16:09;;;;;;;17.63;14.75;;;;;;;10.71;100.00;98856.31;4970773;28;20042;-67
2022/12/26 13:18:39;;;;;;;17.80;13.40;;;;;;;10.66;100.00;98842.69;4983954;28;20113;-67
2022/12/26 13:21:09;;;;;;;15.60;13.57;;;;;;;10.77;100.00;98857.94;4980550;28;20042;-67
2022/12/26 13:26:51;;;;;;;15.10;13.50;;;;;;;10.49;100.00;98850.66;4987159;28;20518;-68
2022/12/26 13:29:36;;;;;;;18.67;13.05;;;;;;;10.47;100.00;98861.81;4986123;28;20510;-66
2022/12/26 13:32:04;;;;;;;;;;;;;;;10.49;100.00;98855.78;4988253;28;20046;-68
2022/12/26 13:34:31;;;;;;;14.77;13.05;;;;;;;10.50;100.00;98848.94;4987230;28;20499;-67
2022/12/26 13:36:59;;;;;;;18.10;14.38;;;;;;;10.49;100.00;98850.66;5025691;28;20135;-67
2022/12/26 13:39:29;;;;;;;18.52;14.18;;;;;;;10.31;100.00;98850.09;5062223;28;20292;-67
2022/12/26 13:44:49;;;;;;;16.13;14.40;;;;;;;10.22;100.00;98824.59;5063686;28;20078;-66
2022/12/26 13:47:35;;;;;;;19.00;15.02;;;;;;;10.22;100.00;98843.41;5056962;28;20045;-67
2022/12/26 13:50:38;;;;;;;17.90;14.95;;;;;;;10.08;100.00;98842.69;5058718;28;20072;-67